Details From NWWW - Noumea La Tontouta
To NFTF - Fua Amotu Intl
Flight Number -
Tags Decoded
Created
Modified
Stats Distance 1,069 nm / 1,979 km
Max Altitude 0 ft / 0 m
Waypoints 4
Social Downloads 4
Likes 0
Share VATSIM

Download

Looking for another format? Having issues loading an existing format? Contact us
Advertisement - Login to hide

Notes

Decoded

Route

NWWW LTO BUSTA NFTF

ID Type Via Altitude Latitude Longitude Leg Dist Tot Dist Heading (true) Name
O NWWW APT - 0 ft / 0 m -22.00756˚ 166.20102˚ - 0 nm - -
LTO VOR - 0 ft / 0 m -22.00511˚ 166.21178˚ 0 nm 0 nm 76° / 76° LA TONTOUTA VOR-DME
BUSTA FIX - 0 ft / 0 m -21.55167˚ -175.00000˚ 1047 nm 1048 nm 92° / 85° -
O NFTF APT - 0 ft / 0 m -21.23770˚ -175.13873˚ 20 nm 1068 nm 338° / 338° Fua Amotu Intl

Altitude Profile

Advertisement - Login to hide

Weather


0- 5 10 15 20 25 30 35+ Temperature / ° C

Clouds and Precipitation
Forecast for 2017-12-12 06:00 UTC. Updated a few seconds ago

Ground ~20,000 ft ~40,000 ft Winds

NWWW

Details ICAO NWWW (NOU)
Name Noumea La Tontouta
Region New Caledonia
Timezone Pacific/Noumea (UTC+11.0)
Stats Elevation 51 ft / 16 m (AMSL)
Location -22.014529° 166.213022°
Runways 1
Magnetic Variation 12.334° E

METAR

NWWW 120300Z AUTO 19013KT 9999 ///TCU 32/20 Q1007 TEMPO 4000 SHRA SCT020CB

Decode

TAF

TAF NWWW 112300Z 1200/1224 18010KT 9999 SCT025 TEMPO 1200/1208 SHRA SCT030TCU PROB40 TEMPO 1200/1206 4000 SHRA SCT020CB BECMG 1206/1208 VRB02KT BECMG 1222/1224 20010KT

Decode

Departure Runways

ID Width Length Bearing (true) Bearing (mag) Surface Threshold Offset Overrun Length
11 148 ft / 45 m 10,666 ft / 3,251 m 121.21° 108.88° Asphalt 0 ft / 0 m 338 ft / 103 m
29 148 ft / 45 m 10,666 ft / 3,251 m 301.19° 288.86° Asphalt 0 ft / 0 m 354 ft / 108 m

NFTF

Details ICAO NFTF (TBU)
Name Fua Amotu Intl
Region Fiji and Tonga
Timezone Pacific/Tongatapu (UTC+14.0)
Stats Elevation 126 ft / 38 m (AMSL)
Location -21.242493° -175.144569°
Runways 2
Magnetic Variation 13.665° E

METAR

NFTF 120300Z 00000KT 9999 FEW017TCU 27/20 Q012

Decode

TAF

TAF NFTF 112312Z 1200/1224 12008KT 9999 SCT016

Decode

Destination Runways

ID Width Length Bearing (true) Bearing (mag) Surface Threshold Offset Overrun Length
11 148 ft / 45 m 8,967 ft / 2,733 m 122.10° 108.43° Asphalt 0 ft / 0 m 194 ft / 59 m
17 194 ft / 59 m 4,960 ft / 1,512 m 182.40° 168.73° Unknown 0 ft / 0 m 0 ft / 0 m
29 148 ft / 45 m 8,967 ft / 2,733 m 302.09° 288.42° Asphalt 0 ft / 0 m 194 ft / 59 m
35 194 ft / 59 m 4,960 ft / 1,512 m 2.40° 348.73° Unknown 0 ft / 0 m 0 ft / 0 m